createdAt,value
2019-04-30T00:02:27.835Z,20.67
2019-04-30T00:04:56.602Z,19.83
2019-04-30T00:07:25.347Z,22.70
2019-04-30T00:09:55.205Z,23.30
2019-04-30T00:12:25.753Z,21.70
2019-04-30T00:14:55.033Z,22.13
2019-04-30T00:17:25.557Z,22.23
2019-04-30T00:19:58.222Z,22.90
2019-04-30T00:22:31.725Z,20.47
2019-04-30T00:24:55.656Z,20.47
2019-04-30T00:27:26.344Z,19.30
2019-04-30T00:29:55.805Z,20.00
2019-04-30T00:32:25.832Z,22.83
2019-04-30T00:34:55.668Z,21.07
2019-04-30T00:37:25.473Z,20.57
2019-04-30T00:39:55.553Z,22.77
2019-04-30T00:42:28.412Z,20.13
2019-04-30T00:44:55.296Z,22.70
2019-04-30T00:47:25.663Z,19.20
2019-04-30T00:49:58.846Z,22.27
2019-04-30T00:52:25.303Z,19.97
2019-04-30T00:54:55.330Z,21.40
2019-04-30T00:57:26.369Z,20.20
2019-04-30T00:59:54.897Z,22.00
2019-04-30T01:05:22.453Z,22.17
2019-04-30T01:07:51.934Z,27.23
2019-04-30T01:10:24.795Z,24.73
2019-04-30T01:12:50.645Z,23.63
2019-04-30T01:15:19.164Z,23.37
2019-04-30T01:17:51.013Z,26.10
2019-04-30T01:20:19.359Z,31.07
2019-04-30T01:22:48.707Z,25.73
2019-04-30T01:25:18.681Z,28.63
2019-04-30T01:27:49.105Z,30.03
2019-04-30T01:30:22.557Z,26.37
2019-04-30T01:32:51.956Z,27.93
2019-04-30T01:35:19.124Z,27.47
2019-04-30T01:37:48.792Z,28.17
2019-04-30T01:40:19.053Z,30.00
2019-04-30T01:42:50.773Z,27.93
2019-04-30T01:45:18.806Z,33.03
2019-04-30T01:47:49.123Z,32.90
2019-04-30T01:50:19.277Z,28.50
2019-04-30T01:52:53.659Z,27.43
2019-04-30T01:55:25.087Z,28.83
2019-04-30T01:57:59.165Z,23.57
2019-04-30T02:00:29.394Z,27.03
2019-04-30T02:02:59.233Z,24.47
2019-04-30T02:05:28.748Z,26.37
2019-04-30T02:07:58.501Z,27.43
2019-04-30T02:10:28.538Z,29.07
2019-04-30T02:12:58.953Z,26.70
2019-04-30T02:15:29.046Z,27.43
2019-04-30T02:17:58.724Z,27.47
2019-04-30T02:20:28.686Z,27.53
2019-04-30T02:22:58.698Z,26.43
2019-04-30T02:25:29.351Z,25.13
2019-04-30T02:27:59.091Z,24.97
2019-04-30T02:30:30.509Z,28.20
2019-04-30T02:33:19.928Z,26.33
2019-04-30T02:36:05.923Z,27.33
2019-04-30T02:38:36.106Z,27.10
2019-04-30T02:41:05.162Z,26.93
2019-04-30T02:43:53.303Z,28.27
2019-04-30T02:46:23.255Z,25.93
2019-04-30T02:48:53.619Z,26.63
2019-04-30T02:51:24.683Z,25.93
2019-04-30T02:54:11.320Z,27.40
2019-04-30T02:56:44.438Z,26.43
2019-04-30T02:59:12.887Z,25.40
2019-04-30T03:01:43.983Z,29.53
2019-04-30T03:04:12.442Z,28.87
2019-04-30T03:06:41.321Z,25.47
2019-04-30T03:09:11.037Z,27.10
2019-04-30T03:11:40.907Z,30.70
2019-04-30T03:14:10.331Z,25.47
2019-04-30T03:16:46.726Z,27.80
2019-04-30T03:19:22.315Z,28.23
2019-04-30T03:21:55.321Z,27.87
2019-04-30T03:24:23.987Z,27.70
2019-04-30T03:26:52.445Z,27.07
2019-04-30T03:29:23.898Z,32.63
2019-04-30T03:31:52.507Z,29.97
2019-04-30T03:34:25.831Z,27.20
2019-04-30T03:36:51.457Z,31.40
2019-04-30T03:39:25.687Z,31.13
2019-04-30T03:41:54.116Z,28.93
2019-04-30T03:44:25.855Z,27.97
2019-04-30T03:46:52.777Z,29.37
2019-04-30T03:52:19.666Z,28.67
2019-04-30T03:54:49.452Z,27.87
2019-04-30T03:57:20.470Z,29.20
2019-04-30T03:59:49.989Z,29.13
2019-04-30T04:02:25.980Z,27.73
2019-04-30T04:04:56.075Z,32.10
2019-04-30T04:07:29.967Z,27.23
2019-04-30T04:10:00.386Z,30.90
2019-04-30T04:12:30.460Z,30.93
2019-04-30T04:15:03.287Z,30.77
2019-04-30T04:17:31.389Z,32.03
2019-04-30T04:19:59.990Z,31.90
2019-04-30T04:22:30.672Z,32.80
2019-04-30T04:25:00.104Z,34.47
2019-04-30T04:27:30.097Z,34.47
2019-04-30T04:30:01.059Z,33.23
2019-04-30T04:32:30.727Z,30.23
2019-04-30T04:46:04.441Z,32.43
2019-04-30T04:48:33.456Z,36.70
2019-04-30T04:51:01.921Z,33.07
2019-04-30T04:53:30.617Z,33.33
2019-04-30T04:55:59.896Z,33.10
2019-04-30T04:58:30.223Z,34.57
2019-04-30T05:00:59.299Z,34.60
2019-04-30T05:03:29.897Z,33.63
2019-04-30T05:06:01.895Z,36.20
2019-04-30T05:08:28.693Z,33.27
2019-04-30T05:10:57.140Z,32.73
2019-04-30T05:13:25.651Z,36.97
2019-04-30T05:15:54.665Z,36.07
2019-04-30T05:18:23.107Z,35.40
2019-04-30T05:20:55.940Z,32.93
2019-04-30T05:23:22.017Z,37.57
2019-04-30T05:25:50.508Z,39.20
2019-04-30T05:28:20.302Z,31.73
2019-04-30T05:30:49.429Z,34.60
2019-04-30T05:33:18.655Z,36.53
2019-04-30T05:35:47.202Z,30.13
2019-04-30T05:38:15.651Z,32.13
2019-04-30T05:40:44.523Z,32.27
2019-04-30T05:43:12.971Z,34.07
2019-04-30T05:45:41.419Z,32.00
2019-04-30T05:48:12.868Z,35.30
2019-04-30T05:50:41.672Z,29.57
2019-04-30T05:53:10.497Z,33.97
2019-04-30T05:55:41.778Z,32.97
2019-04-30T05:58:11.773Z,31.47
2019-04-30T06:00:59.832Z,31.27
2019-04-30T06:03:33.038Z,29.03
2019-04-30T06:05:58.979Z,28.07
2019-04-30T06:08:29.322Z,31.17
2019-04-30T06:11:05.181Z,29.50
2019-04-30T06:13:49.151Z,28.43
2019-04-30T06:16:18.917Z,30.07
2019-04-30T06:18:48.546Z,28.37
2019-04-30T06:21:19.283Z,30.27
2019-04-30T06:23:49.184Z,29.13
2019-04-30T06:26:20.462Z,27.43
2019-04-30T06:28:49.625Z,27.93
2019-04-30T06:31:22.280Z,25.63
2019-04-30T06:33:48.712Z,25.07
2019-04-30T06:36:19.055Z,26.17
2019-04-30T06:38:48.869Z,27.13
2019-04-30T06:41:17.553Z,25.07
2019-04-30T06:43:46.367Z,24.67
2019-04-30T06:46:14.864Z,26.07
2019-04-30T06:48:45.857Z,25.07
2019-04-30T06:51:13.573Z,24.77
2019-04-30T06:54:01.362Z,26.07
2019-04-30T06:56:29.780Z,22.43
2019-04-30T06:58:59.015Z,23.07
2019-04-30T07:01:29.035Z,24.43
2019-04-30T07:04:00.786Z,22.00
2019-04-30T07:06:32.307Z,23.37
2019-04-30T07:09:02.700Z,23.30
2019-04-30T07:11:32.755Z,20.23
2019-04-30T07:14:01.303Z,21.80
2019-04-30T07:16:30.221Z,19.80
2019-04-30T07:18:58.740Z,13.27
2019-04-30T07:21:29.428Z,17.00
2019-04-30T07:23:59.557Z,19.13
2019-04-30T07:26:28.908Z,15.57
2019-04-30T07:29:01.846Z,18.10
2019-04-30T07:31:29.570Z,16.50
2019-04-30T07:33:59.467Z,16.33
2019-04-30T07:36:43.328Z,15.23
2019-04-30T07:38:59.920Z,15.70
2019-04-30T07:41:30.821Z,17.60
2019-04-30T07:43:59.295Z,18.40
2019-04-30T07:46:29.797Z,19.07
2019-04-30T07:49:00.013Z,15.63
2019-04-30T07:51:32.076Z,17.40
2019-04-30T07:53:59.110Z,15.83
2019-04-30T07:56:32.156Z,15.67
2019-04-30T07:59:00.741Z,17.20
2019-04-30T08:01:30.997Z,17.67
2019-04-30T08:04:01.329Z,17.00
2019-04-30T08:06:31.144Z,15.40
2019-04-30T08:09:00.987Z,15.43
2019-04-30T08:11:34.442Z,15.97
2019-04-30T08:14:00.350Z,13.93
2019-04-30T08:16:29.025Z,15.73
2019-04-30T08:18:59.200Z,13.60
2019-04-30T08:21:28.767Z,16.43
2019-04-30T08:23:59.362Z,16.00
2019-04-30T08:26:28.677Z,13.70
2019-04-30T08:28:57.339Z,19.27
2019-04-30T08:31:26.494Z,14.53
2019-04-30T08:33:54.908Z,14.13
2019-04-30T08:36:23.346Z,15.60
2019-04-30T08:38:51.824Z,15.30
2019-04-30T08:41:20.265Z,13.60
2019-04-30T08:43:49.660Z,14.33
2019-04-30T08:46:19.077Z,15.43
2019-04-30T08:48:51.643Z,17.13
2019-04-30T08:51:19.052Z,14.27
2019-04-30T08:53:48.629Z,16.63
2019-04-30T08:56:17.228Z,17.80
2019-04-30T08:58:46.035Z,14.87
2019-04-30T09:01:14.630Z,13.20
2019-04-30T09:03:43.147Z,15.70
2019-04-30T09:06:13.261Z,16.10
2019-04-30T09:08:42.159Z,15.40
2019-04-30T09:11:22.450Z,19.20
2019-04-30T09:13:43.818Z,14.83
2019-04-30T09:16:13.056Z,18.57
2019-04-30T09:18:41.739Z,15.27
2019-04-30T09:21:11.865Z,16.63
2019-04-30T09:23:49.460Z,13.97
2019-04-30T09:26:12.184Z,15.70
2019-04-30T09:28:41.170Z,15.27
2019-04-30T09:31:09.580Z,15.40
2019-04-30T09:33:41.353Z,14.37
2019-04-30T09:36:12.490Z,17.60
2019-04-30T09:38:42.499Z,20.03
2019-04-30T09:41:12.494Z,16.73
2019-04-30T09:43:42.456Z,17.37
2019-04-30T09:46:21.996Z,15.83
2019-04-30T09:48:43.798Z,15.80
2019-04-30T09:51:12.920Z,16.37
2019-04-30T09:53:42.197Z,17.00
2019-04-30T09:56:11.080Z,16.90
2019-04-30T09:58:40.166Z,16.00
2019-04-30T10:01:10.267Z,17.27
2019-04-30T10:03:40.363Z,16.10
2019-04-30T10:06:09.775Z,15.33
2019-04-30T10:11:49.918Z,16.80
2019-04-30T10:14:18.174Z,18.17
2019-04-30T10:16:54.380Z,14.43
2019-04-30T10:19:22.807Z,16.70
2019-04-30T10:21:51.267Z,17.13
2019-04-30T10:24:19.761Z,16.80
2019-04-30T10:26:48.231Z,16.87
2019-04-30T10:29:17.709Z,16.53
2019-04-30T10:31:48.901Z,14.90
2019-04-30T10:34:17.194Z,15.63
2019-04-30T10:36:45.753Z,15.97
2019-04-30T10:39:14.384Z,14.87
2019-04-30T10:41:42.804Z,15.80
2019-04-30T10:44:14.159Z,17.40
2019-04-30T10:46:42.613Z,16.70
2019-04-30T10:49:12.751Z,16.37
2019-04-30T10:51:43.915Z,19.60
2019-04-30T10:54:23.206Z,14.83
2019-04-30T10:56:42.515Z,15.00
2019-04-30T10:59:12.556Z,16.47
2019-04-30T11:01:42.597Z,16.37
2019-04-30T11:04:24.887Z,14.77
2019-04-30T11:06:53.477Z,16.33
2019-04-30T11:09:21.990Z,14.07
2019-04-30T11:11:53.472Z,15.20
2019-04-30T11:14:21.926Z,13.37
2019-04-30T11:16:51.750Z,15.27
2019-04-30T11:19:20.583Z,13.17
2019-04-30T11:21:49.381Z,14.77
2019-04-30T11:24:19.611Z,12.73
2019-04-30T11:26:50.162Z,13.80
2019-04-30T11:29:18.574Z,14.33
2019-04-30T11:32:04.006Z,14.97
2019-04-30T11:34:32.664Z,15.13
2019-04-30T11:37:01.340Z,17.13
2019-04-30T11:39:29.908Z,12.93
2019-04-30T11:41:58.399Z,12.43
2019-04-30T11:44:31.357Z,13.87
2019-04-30T11:47:00.543Z,14.57
2019-04-30T11:49:29.129Z,12.77
2019-04-30T11:51:57.809Z,14.07
2019-04-30T11:54:26.357Z,13.53
2019-04-30T11:56:54.888Z,12.70
2019-04-30T11:59:23.317Z,13.90
2019-04-30T12:01:53.456Z,13.33
2019-04-30T12:04:21.887Z,12.73
2019-04-30T12:06:50.944Z,11.70
2019-04-30T12:09:38.610Z,11.77
2019-04-30T12:12:09.035Z,11.27
2019-04-30T12:14:42.078Z,11.77
2019-04-30T12:17:13.438Z,12.37
2019-04-30T12:19:41.919Z,10.67
2019-04-30T12:22:11.902Z,10.37
2019-04-30T12:24:41.917Z,11.47
2019-04-30T12:27:11.872Z,10.13
2019-04-30T12:29:41.888Z,11.77
2019-04-30T12:32:29.895Z,12.47
2019-04-30T12:34:58.498Z,10.93
2019-04-30T12:37:28.971Z,7.37
2019-04-30T12:39:57.065Z,9.13
2019-04-30T12:42:25.716Z,8.83
2019-04-30T12:44:54.350Z,10.83
2019-04-30T12:47:22.754Z,11.43
2019-04-30T12:50:00.941Z,9.10
2019-04-30T12:55:29.361Z,9.93
2019-04-30T12:58:01.650Z,8.33
2019-04-30T13:00:29.948Z,8.93
2019-04-30T13:03:04.061Z,10.53
2019-04-30T13:05:52.249Z,11.47
2019-04-30T13:08:21.990Z,9.50
2019-04-30T13:10:51.816Z,9.80
2019-04-30T13:13:21.139Z,8.50
2019-04-30T13:15:49.846Z,8.47
2019-04-30T13:18:39.386Z,8.20
2019-04-30T13:21:08.594Z,7.63
2019-04-30T13:23:37.286Z,7.03
2019-04-30T13:26:05.796Z,7.23
2019-04-30T13:28:51.860Z,7.97
2019-04-30T13:31:20.372Z,9.67
2019-04-30T13:36:40.719Z,8.33
2019-04-30T13:39:09.863Z,7.00
2019-04-30T13:44:19.480Z,9.53
2019-04-30T13:46:48.212Z,11.40
2019-04-30T13:49:16.644Z,8.57
2019-04-30T13:51:45.104Z,8.33
2019-04-30T13:54:13.554Z,7.93
2019-04-30T13:56:41.975Z,9.67
2019-04-30T13:59:10.399Z,8.77
2019-04-30T14:01:39.118Z,9.43
2019-04-30T14:04:09.290Z,7.33
2019-04-30T14:06:45.371Z,9.17
2019-04-30T14:09:21.692Z,7.60
2019-04-30T14:11:50.201Z,7.70
2019-04-30T14:14:20.017Z,7.87
2019-04-30T14:16:48.512Z,7.03
2019-04-30T14:19:16.919Z,5.63
2019-04-30T14:21:45.388Z,8.27
2019-04-30T14:24:14.110Z,7.23
2019-04-30T14:26:42.537Z,6.30
2019-04-30T14:29:10.956Z,6.17
2019-04-30T14:31:39.390Z,7.10
2019-04-30T14:34:10.026Z,7.00
2019-04-30T14:36:39.201Z,5.93
2019-04-30T14:39:16.079Z,5.13
2019-04-30T14:41:40.336Z,4.67
2019-04-30T14:44:31.861Z,5.63
2019-04-30T14:47:11.789Z,5.83
2019-04-30T14:50:01.587Z,7.03
2019-04-30T14:52:23.241Z,4.53
2019-04-30T14:55:02.308Z,6.67
2019-04-30T14:57:32.390Z,6.43
2019-04-30T15:00:02.433Z,5.30
2019-04-30T15:02:44.545Z,5.87
2019-04-30T15:05:13.194Z,4.50
2019-04-30T15:07:41.845Z,5.10
2019-04-30T15:10:11.912Z,5.97
2019-04-30T15:12:41.900Z,4.63
2019-04-30T15:15:11.366Z,4.53
2019-04-30T15:17:42.765Z,4.37
2019-04-30T15:20:14.676Z,4.87
2019-04-30T15:22:44.778Z,5.03
2019-04-30T15:25:13.544Z,5.33
2019-04-30T15:27:45.202Z,5.83
2019-04-30T15:30:12.985Z,6.07
2019-04-30T15:32:43.366Z,4.03
2019-04-30T15:35:11.890Z,4.27
2019-04-30T15:37:43.587Z,6.77
2019-04-30T15:40:12.111Z,5.17
2019-04-30T15:42:45.061Z,4.40
2019-04-30T15:45:16.188Z,4.80
2019-04-30T15:47:44.629Z,3.80
2019-04-30T15:50:13.401Z,5.23
2019-04-30T15:52:41.886Z,4.10
2019-04-30T15:55:12.326Z,5.30
2019-04-30T15:57:45.235Z,5.37
2019-04-30T16:00:13.839Z,5.00
2019-04-30T16:02:54.748Z,4.80
2019-04-30T16:05:19.425Z,5.43
2019-04-30T16:07:49.508Z,4.10
2019-04-30T16:10:25.583Z,5.50
2019-04-30T16:12:58.873Z,3.90
2019-04-30T16:15:29.647Z,4.77
2019-04-30T16:18:05.054Z,5.40
2019-04-30T16:20:33.487Z,5.00
2019-04-30T16:23:02.093Z,3.70
2019-04-30T16:25:32.592Z,3.80
2019-04-30T16:28:01.279Z,5.60
2019-04-30T16:30:29.691Z,4.23
2019-04-30T16:32:59.648Z,4.80
2019-04-30T16:35:29.577Z,4.63
2019-04-30T16:38:01.065Z,4.57
2019-04-30T16:40:29.488Z,3.30
2019-04-30T16:42:58.004Z,4.47
2019-04-30T16:45:26.465Z,5.47
2019-04-30T16:47:54.918Z,3.93
2019-04-30T16:50:23.368Z,3.90
2019-04-30T16:55:24.194Z,4.63
2019-04-30T16:57:52.645Z,4.57
2019-04-30T17:00:21.331Z,3.03
2019-04-30T17:02:51.407Z,4.13
2019-04-30T17:05:30.435Z,4.13
2019-04-30T17:08:01.855Z,4.07
2019-04-30T17:10:50.298Z,3.57
2019-04-30T17:13:29.017Z,5.80
2019-04-30T17:16:01.734Z,5.87
2019-04-30T17:18:30.157Z,4.30
2019-04-30T17:20:58.690Z,8.47
2019-04-30T17:23:29.230Z,4.13
2019-04-30T17:25:57.335Z,6.07
2019-04-30T17:28:25.764Z,4.27
2019-04-30T17:30:54.177Z,6.70
2019-04-30T17:33:22.654Z,3.63
2019-04-30T17:35:51.128Z,5.60
2019-04-30T17:38:19.536Z,4.53
2019-04-30T17:40:49.683Z,4.10
2019-04-30T17:43:18.264Z,4.10
2019-04-30T17:45:46.703Z,3.00
2019-04-30T17:48:15.115Z,3.63
2019-04-30T17:50:43.603Z,4.63
2019-04-30T17:53:12.054Z,3.50
2019-04-30T17:55:40.499Z,5.90
2019-04-30T17:58:09.776Z,5.60
2019-04-30T18:00:40.094Z,6.70
2019-04-30T18:03:08.798Z,4.60
2019-04-30T18:05:39.183Z,3.27
2019-04-30T18:08:07.816Z,4.20
2019-04-30T18:10:36.242Z,5.43
2019-04-30T18:13:04.641Z,3.20
2019-04-30T18:15:33.164Z,5.87
2019-04-30T18:18:03.229Z,2.97
2019-04-30T18:20:36.296Z,4.83
2019-04-30T18:23:15.502Z,4.03
2019-04-30T18:25:45.567Z,3.63
2019-04-30T18:28:13.997Z,3.70
2019-04-30T18:30:42.494Z,6.17
2019-04-30T18:33:10.914Z,3.97
2019-04-30T18:35:39.525Z,2.93
2019-04-30T18:38:09.767Z,2.60
2019-04-30T18:40:39.779Z,5.70
2019-04-30T18:43:28.737Z,3.13
2019-04-30T18:45:57.533Z,5.70
2019-04-30T18:48:26.054Z,5.90
2019-04-30T18:50:54.646Z,4.47
2019-04-30T18:53:26.067Z,3.87
2019-04-30T18:55:55.356Z,5.67
2019-04-30T18:58:38.910Z,4.10
2019-04-30T19:00:56.367Z,8.93
2019-04-30T19:03:24.791Z,4.30
2019-04-30T19:06:03.618Z,5.53
2019-04-30T19:08:33.676Z,4.60
2019-04-30T19:11:19.073Z,3.23
2019-04-30T19:13:54.791Z,4.73
2019-04-30T19:16:27.694Z,4.20
2019-04-30T19:21:53.259Z,3.40
2019-04-30T19:24:22.060Z,5.27
2019-04-30T19:26:50.894Z,3.27
2019-04-30T19:29:23.047Z,6.00
2019-04-30T19:31:52.449Z,2.70
2019-04-30T19:34:21.453Z,5.53
2019-04-30T19:36:50.675Z,5.37
2019-04-30T19:39:20.522Z,4.37
2019-04-30T19:41:49.227Z,3.90
2019-04-30T19:44:22.741Z,7.83
2019-04-30T19:46:51.822Z,5.17
2019-04-30T19:49:20.507Z,3.87
2019-04-30T19:51:53.167Z,6.63
2019-04-30T19:54:20.050Z,3.67
2019-04-30T19:56:50.167Z,5.13
2019-04-30T19:59:19.398Z,3.93
2019-04-30T20:01:57.187Z,4.20
2019-04-30T20:04:33.287Z,7.20
2019-04-30T20:06:59.051Z,4.67
2019-04-30T20:09:29.086Z,4.83
2019-04-30T20:11:59.611Z,4.60
2019-04-30T20:14:29.225Z,6.13
2019-04-30T20:16:59.028Z,4.30
2019-04-30T20:19:34.259Z,5.10
2019-04-30T20:22:10.364Z,5.13
2019-04-30T20:24:39.433Z,5.70
2019-04-30T20:27:10.128Z,6.07
2019-04-30T20:29:40.908Z,6.53
2019-04-30T20:32:16.812Z,21.03
2019-04-30T20:34:45.435Z,14.40
2019-04-30T20:37:13.877Z,25.43
2019-04-30T20:40:02.159Z,6.43
2019-04-30T20:42:30.591Z,8.93
2019-04-30T20:44:59.059Z,5.90
2019-04-30T20:47:29.839Z,7.23
2019-04-30T20:50:17.011Z,6.90
2019-04-30T20:52:45.469Z,7.00
2019-04-30T20:55:13.929Z,7.53
2019-04-30T20:57:42.455Z,8.20
2019-04-30T21:00:12.666Z,7.13
2019-04-30T21:02:44.160Z,8.17
2019-04-30T21:05:18.454Z,8.00
2019-04-30T21:07:47.366Z,7.17
2019-04-30T21:10:15.922Z,8.03
2019-04-30T21:12:44.379Z,8.73
2019-04-30T21:15:13.324Z,9.87
2019-04-30T21:17:41.835Z,9.07
2019-04-30T21:20:31.936Z,6.90
2019-04-30T21:23:11.419Z,8.93
2019-04-30T21:25:48.809Z,8.20
2019-04-30T21:31:30.165Z,9.27
2019-04-30T21:36:49.713Z,9.47
2019-04-30T21:39:19.992Z,9.17
2019-04-30T21:42:04.766Z,8.57
2019-04-30T21:44:35.429Z,11.03
2019-04-30T21:47:04.511Z,8.20
2019-04-30T21:49:32.974Z,9.17
2019-04-30T21:52:01.407Z,8.67
2019-04-30T21:54:30.532Z,10.63
2019-04-30T21:56:59.093Z,11.70
2019-04-30T21:59:28.737Z,9.93
2019-04-30T22:04:48.979Z,11.67
2019-04-30T22:07:19.471Z,13.00
2019-04-30T22:10:09.674Z,11.00
2019-04-30T22:12:39.347Z,12.17
2019-04-30T22:15:10.551Z,8.87
2019-04-30T22:17:41.903Z,12.20
2019-04-30T22:20:11.150Z,10.17
2019-04-30T22:22:39.662Z,10.20
2019-04-30T22:25:09.444Z,12.20
2019-04-30T22:27:38.032Z,11.07
2019-04-30T22:30:11.537Z,11.47
2019-04-30T22:32:39.977Z,13.00
2019-04-30T22:35:28.084Z,10.83
2019-04-30T22:37:59.239Z,10.60
2019-04-30T22:40:31.340Z,11.77
2019-04-30T22:43:01.899Z,13.90
2019-04-30T22:45:34.483Z,11.27
2019-04-30T22:48:02.917Z,12.00
2019-04-30T22:50:31.369Z,17.67
2019-04-30T22:53:00.339Z,16.60
2019-04-30T22:55:28.936Z,15.23
2019-04-30T22:58:16.777Z,17.50
2019-04-30T23:00:46.599Z,17.20
2019-04-30T23:03:16.661Z,19.03
2019-04-30T23:05:45.158Z,17.70
2019-04-30T23:08:26.336Z,17.87
2019-04-30T23:10:55.500Z,15.03
2019-04-30T23:13:24.332Z,17.20
2019-04-30T23:15:54.957Z,16.57
2019-04-30T23:18:23.401Z,15.53
2019-04-30T23:20:51.859Z,16.30
2019-04-30T23:23:20.273Z,16.23
2019-04-30T23:25:48.713Z,15.23
2019-04-30T23:28:17.127Z,15.50
2019-04-30T23:30:46.060Z,15.60
2019-04-30T23:33:14.577Z,15.60
2019-04-30T23:35:43.077Z,17.93
2019-04-30T23:38:11.692Z,20.10
2019-04-30T23:40:48.090Z,20.30
2019-04-30T23:43:16.589Z,15.53
2019-04-30T23:45:45.190Z,15.93
2019-04-30T23:48:13.930Z,17.83
2019-04-30T23:50:49.153Z,15.90
2019-04-30T23:53:17.928Z,17.30
2019-04-30T23:55:46.498Z,17.40
2019-04-30T23:58:14.940Z,16.00
